OCN143Y FYWH-EDDM
Flight info
| Callsign | OCN143Y |
|---|---|
| Flight time | N/A |
| Altitude | 36000 |
| Route | VEDRY UN187 VNA UR526 LIKAD DCT RASOP UG861 DLA UA604 AS UR978 CSO UA605 CIRTA DCT ETOIL DCT OMEDA DCT TORTU DCT ERTEV DCT TAGIP DCT GUNGO DCT IVKAL/N0454F380 T102 NINUR T101 BETOS BETOS1A |
| Aircraft | A333/H-SDE3GHIJ2J3J5M1RVWXY/LB2D1 |
Departure
| Time | 2026-04-16 21:35 |
|---|---|
| Airport | Hosea Kutako International Airport (FYWH) |
Arrival
| Time | N/A |
|---|---|
| Airport | Munich Airport (EDDM) |
| Time | Latitude | Longitude | Altitude | Speed | Heading |
|---|---|---|---|---|---|
| 2026-04-16 21:27 | -22.48592 | 17.46314 | 5572 ft | 0 kts | 153° |
| 2026-04-16 21:28 | -22.48592 | 17.46315 | 5572 ft | 0 kts | 151° |
| 2026-04-16 21:29 | -22.48594 | 17.46319 | 5572 ft | 1 kts | 129° |
| 2026-04-16 21:29 | -22.48587 | 17.46330 | 5569 ft | 2 kts | 50° |
| 2026-04-16 21:29 | -22.48566 | 17.46319 | 5569 ft | 7 kts | 323° |
| 2026-04-16 21:29 | -22.48532 | 17.46287 | 5570 ft | 6 kts | 322° |
| 2026-04-16 21:30 | -22.48514 | 17.46239 | 5573 ft | 7 kts | 273° |
| 2026-04-16 21:30 | -22.48533 | 17.46178 | 5574 ft | 12 kts | 244° |
| 2026-04-16 21:30 | -22.48572 | 17.46092 | 5575 ft | 12 kts | 244° |
| 2026-04-16 21:30 | -22.48608 | 17.46013 | 5575 ft | 12 kts | 243° |
| 2026-04-16 21:31 | -22.48650 | 17.45924 | 5578 ft | 14 kts | 243° |
| 2026-04-16 21:31 | -22.48692 | 17.45831 | 5581 ft | 13 kts | 243° |
| 2026-04-16 21:31 | -22.48734 | 17.45740 | 5584 ft | 14 kts | 243° |
| 2026-04-16 21:31 | -22.48783 | 17.45636 | 5599 ft | 17 kts | 243° |
| 2026-04-16 21:32 | -22.48760 | 17.45537 | 5602 ft | 13 kts | 315° |
| 2026-04-16 21:32 | -22.48742 | 17.45460 | 5603 ft | 9 kts | 256° |
| 2026-04-16 21:32 | -22.48768 | 17.45399 | 5608 ft | 9 kts | 243° |
| 2026-04-16 21:32 | -22.48797 | 17.45336 | 5613 ft | 10 kts | 244° |
| 2026-04-16 21:33 | -22.48830 | 17.45264 | 5613 ft | 12 kts | 244° |
| 2026-04-16 21:33 | -22.48869 | 17.45179 | 5618 ft | 13 kts | 244° |
| 2026-04-16 21:33 | -22.48922 | 17.45109 | 5626 ft | 12 kts | 203° |
| 2026-04-16 21:33 | -22.49012 | 17.45088 | 5626 ft | 15 kts | 209° |
| 2026-04-16 21:34 | -22.49024 | 17.44999 | 5634 ft | 13 kts | 313° |
| 2026-04-16 21:34 | -22.48967 | 17.44984 | 5634 ft | 10 kts | 22° |
| 2026-04-16 21:34 | -22.48928 | 17.45045 | 5628 ft | 16 kts | 63° |
| 2026-04-16 21:34 | -22.48791 | 17.45345 | 5610 ft | 75 kts | 64° |
| 2026-04-16 21:35 | -22.48478 | 17.46030 | 5578 ft | 128 kts | 64° |
| 2026-04-16 21:35 | -22.48010 | 17.47052 | 5568 ft | 175 kts | 64° |
| 2026-04-16 21:35 | -22.47421 | 17.48364 | 5781 ft | 203 kts | 65° |
| 2026-04-16 21:35 | -22.46853 | 17.49759 | 6604 ft | 205 kts | 65° |
| 2026-04-16 21:36 | -22.46276 | 17.51194 | 7276 ft | 212 kts | 65° |
| 2026-04-16 21:36 | -22.45665 | 17.52745 | 7641 ft | 237 kts | 66° |
| 2026-04-16 21:36 | -22.44920 | 17.54438 | 7873 ft | 263 kts | 50° |
| 2026-04-16 21:36 | -22.43440 | 17.55635 | 8018 ft | 275 kts | 15° |
| 2026-04-16 21:37 | -22.41547 | 17.55715 | 8407 ft | 276 kts | 342° |
| 2026-04-16 21:37 | -22.39825 | 17.54818 | 9016 ft | 276 kts | 325° |
| 2026-04-16 21:37 | -22.38251 | 17.53627 | 9667 ft | 277 kts | 325° |
| 2026-04-16 21:37 | -22.36627 | 17.52491 | 10280 ft | 280 kts | 327° |
| 2026-04-16 21:38 | -22.34929 | 17.51350 | 10548 ft | 295 kts | 327° |
| 2026-04-16 21:38 | -22.33132 | 17.50156 | 10747 ft | 312 kts | 328° |
| 2026-04-16 21:38 | -22.31239 | 17.48894 | 10956 ft | 328 kts | 327° |
| 2026-04-16 21:38 | -22.29260 | 17.47563 | 11121 ft | 343 kts | 327° |
| 2026-04-16 21:39 | -22.27203 | 17.46169 | 11360 ft | 355 kts | 327° |
| 2026-04-16 21:39 | -22.25098 | 17.44734 | 11767 ft | 360 kts | 327° |
| 2026-04-16 21:39 | -22.22968 | 17.43279 | 12280 ft | 363 kts | 327° |
| 2026-04-16 21:39 | -22.20854 | 17.41835 | 12806 ft | 366 kts | 327° |
| 2026-04-16 21:40 | -22.18696 | 17.40360 | 13331 ft | 368 kts | 327° |
| 2026-04-16 21:40 | -22.16495 | 17.38855 | 13885 ft | 370 kts | 327° |
| 2026-04-16 21:40 | -22.14315 | 17.37366 | 14342 ft | 372 kts | 327° |
| 2026-04-16 21:40 | -22.12143 | 17.35883 | 14759 ft | 376 kts | 327° |
| 2026-04-16 21:41 | -22.09922 | 17.34368 | 15206 ft | 379 kts | 326° |
| 2026-04-16 21:41 | -22.07684 | 17.32842 | 15643 ft | 382 kts | 326° |
| 2026-04-16 21:41 | -22.05430 | 17.31305 | 16075 ft | 385 kts | 326° |
| 2026-04-16 21:41 | -22.03158 | 17.29757 | 16530 ft | 387 kts | 326° |
| 2026-04-16 21:42 | -22.00871 | 17.28200 | 16961 ft | 390 kts | 326° |
| 2026-04-16 21:42 | -21.98570 | 17.26633 | 17381 ft | 393 kts | 326° |
| 2026-04-16 21:42 | -21.96249 | 17.25053 | 17800 ft | 396 kts | 325° |
| 2026-04-16 21:42 | -21.93912 | 17.23463 | 18216 ft | 399 kts | 325° |
| 2026-04-16 21:43 | -21.91561 | 17.21864 | 18577 ft | 401 kts | 325° |
| 2026-04-16 21:43 | -21.89197 | 17.20258 | 18963 ft | 402 kts | 325° |
| 2026-04-16 21:43 | -21.86831 | 17.18651 | 19348 ft | 403 kts | 325° |
| 2026-04-16 21:43 | -21.84454 | 17.17038 | 19727 ft | 404 kts | 325° |
| 2026-04-16 21:44 | -21.82071 | 17.15420 | 20084 ft | 405 kts | 325° |
| 2026-04-16 21:44 | -21.79683 | 17.13800 | 20433 ft | 407 kts | 325° |
| 2026-04-16 21:44 | -21.77282 | 17.12171 | 20804 ft | 408 kts | 325° |
| 2026-04-16 21:44 | -21.74870 | 17.10549 | 21159 ft | 410 kts | 327° |
| 2026-04-16 21:45 | -21.72311 | 17.09163 | 21512 ft | 414 kts | 335° |
| 2026-04-16 21:45 | -21.69561 | 17.08179 | 21862 ft | 418 kts | 341° |
| 2026-04-16 21:45 | -21.66736 | 17.07385 | 22197 ft | 421 kts | 343° |
| 2026-04-16 21:45 | -21.63873 | 17.06688 | 22531 ft | 423 kts | 344° |
| 2026-04-16 21:46 | -21.60981 | 17.06038 | 22877 ft | 425 kts | 345° |
| 2026-04-16 21:46 | -21.58079 | 17.05404 | 23223 ft | 426 kts | 345° |
| 2026-04-16 21:46 | -21.55167 | 17.04768 | 23538 ft | 428 kts | 345° |
| 2026-04-16 21:46 | -21.52247 | 17.04123 | 23827 ft | 429 kts | 344° |